Time;durP1;ratioP1;P1;durP2;ratioP2;P2;SDS_P1;SDS_P2;PMS_P1;PMS_P2;Temp;Humidity;BMP_temperature;BMP_pressure;BME280_temperature;BME280_humidity;BME280_pressure;Samples;Min_cycle;Max_cycle;Signal;HPM_P1;HPM_P2
2023/02/05 00:01:16;;;;;;;;;;;;;;;2.56;70.19;99631.16;5093362;28;19912;-42
2023/02/05 00:03:41;;;;;;;;;;;;;;;2.64;69.14;99636.44;5093516;28;19918;-41
2023/02/05 00:06:07;;;;;;;;;;;;;;;2.77;67.57;99641.28;5093456;28;20345;-42
2023/02/05 00:08:33;;;;;;;;;;;;;;;2.40;68.64;99628.41;5093590;28;19971;-41
2023/02/05 00:10:58;;;;;;;;;;;;;;;2.33;68.63;99641.34;5093224;28;20006;-43
2023/02/05 00:13:24;;;;;;;;;;;;;;;2.26;67.86;99642.91;5093243;28;19995;-43
2023/02/05 00:15:49;;;;;;;;;;;;;;;2.59;66.71;99653.66;5093479;28;19912;-42
2023/02/05 00:18:14;;;;;;;;;;;;;;;2.68;67.39;99664.06;5093169;28;20310;-43
2023/02/05 00:20:40;;;;;;;;;;;;;;;2.58;68.54;99657.28;5093083;28;19920;-44
2023/02/05 00:23:05;;;;;;;;;;;;;;;2.72;69.16;99669.81;5088802;28;19917;-43
2023/02/05 00:25:30;;;;;;;;;;;;;;;2.42;69.33;99663.22;5072542;28;19939;-41
2023/02/05 00:27:55;;;;;;;;;;;;;;;2.71;67.02;99678.72;5072468;28;19912;-43
2023/02/05 00:30:21;;;;;;;;;;;;;;;2.71;65.33;99666.38;5072469;28;20356;-43
2023/02/05 00:32:46;;;;;;;;;;;;;;;2.68;65.01;99671.94;5072580;28;19916;-43
2023/02/05 00:35:12;;;;;;;;;;;;;;;2.31;65.41;99683.50;5071095;28;19912;-43
2023/02/05 00:37:37;;;;;;;;;;;;;;;2.41;66.67;99688.66;5072326;28;19912;-43
2023/02/05 00:40:02;;;;;;;;;;;;;;;2.34;66.40;99692.88;5072589;28;19958;-43
2023/02/05 00:42:28;;;;;;;;;;;;;;;2.35;66.79;99697.16;5072483;28;19912;-42
2023/02/05 00:44:53;;;;;;;;;;;;;;;2.19;67.02;99702.25;5072364;28;20472;-43
2023/02/05 00:47:18;;;;;;;;;;;;;;;2.20;67.33;99685.53;5072009;28;20240;-42
2023/02/05 00:49:43;;;;;;;;;;;;;;;2.14;68.01;99698.28;5072469;28;19912;-43
2023/02/05 00:52:09;;;;;;;;;;;;;;;1.97;68.01;99701.72;5072310;28;20336;-43
2023/02/05 00:54:34;;;;;;;;;;;;;;;2.09;68.18;99702.31;5072230;28;19912;-42
2023/02/05 00:56:59;;;;;;;;;;;;;;;1.97;68.24;99706.16;5071934;28;19916;-40
2023/02/05 00:59:25;;;;;;;;;;;;;;;2.10;67.27;99707.44;5072189;28;19940;-41
2023/02/05 01:01:50;;;;;;;;;;;;;;;1.99;66.85;99705.03;5071936;28;20307;-41
2023/02/05 01:04:15;;;;;;;;;;;;;;;1.92;65.34;99706.59;5072092;28;19916;-41
2023/02/05 01:06:40;;;;;;;;;;;;;;;2.02;63.80;99683.75;5071807;28;19921;-41
2023/02/05 01:09:06;;;;;;;;;;;;;;;2.10;63.11;99725.00;5071493;28;19918;-42
2023/02/05 01:11:31;;;;;;;;;;;;;;;1.79;63.00;99721.88;5072011;28;20342;-42
2023/02/05 01:13:57;;;;;;;;;;;;;;;1.98;62.67;99715.66;5072493;28;19944;-42
2023/02/05 01:16:22;;;;;;;;;;;;;;;2.04;62.66;99717.72;5072480;28;19924;-42
2023/02/05 01:18:47;;;;;;;;;;;;;;;2.08;62.66;99727.75;5072377;28;20345;-42
2023/02/05 01:21:13;;;;;;;;;;;;;;;2.07;62.26;99722.66;5072214;28;20357;-42
2023/02/05 01:23:38;;;;;;;;;;;;;;;1.96;61.25;99728.94;5072057;28;19919;-42
2023/02/05 01:26:03;;;;;;;;;;;;;;;2.19;60.94;99731.97;5072045;28;19923;-42
2023/02/05 01:28:29;;;;;;;;;;;;;;;2.11;61.01;99748.47;5071892;28;19912;-41
2023/02/05 01:30:54;;;;;;;;;;;;;;;1.74;61.05;99746.75;5091456;28;19982;-42
2023/02/05 01:33:19;;;;;;;;;;;;;;;1.96;61.16;99747.31;5092614;28;19912;-42
2023/02/05 01:35:45;;;;;;;;;;;;;;;2.45;59.39;99747.78;5092591;28;20359;-42
2023/02/05 01:38:10;;;;;;;;;;;;;;;2.21;59.63;99756.28;5092381;28;19919;-42
2023/02/05 01:40:36;;;;;;;;;;;;;;;1.94;60.71;99757.97;5092068;28;19963;-42
2023/02/05 01:43:01;;;;;;;;;;;;;;;1.79;61.83;99761.22;5092105;28;19935;-42
2023/02/05 01:45:31;;;;;;;;;;;;;;;1.71;61.51;99739.19;5092210;28;19912;-42
2023/02/05 01:48:03;;;;;;;;;;;;;;;1.77;63.19;99769.25;5091966;28;19916;-42
2023/02/05 01:50:31;;;;;;;;;;;;;;;1.73;63.16;99768.72;5092073;28;19939;-42
2023/02/05 01:52:58;;;;;;;;;;;;;;;1.39;63.28;99765.84;5092200;28;19912;-42
2023/02/05 01:55:24;;;;;;;;;;;;;;;1.38;63.50;99772.03;5091962;28;19916;-42
2023/02/05 01:57:50;;;;;;;;;;;;;;;1.56;62.61;99770.31;5092017;28;19919;-42
2023/02/05 02:00:15;;;;;;;;;;;;;;;1.62;62.77;99776.78;5092009;28;20332;-42
2023/02/05 02:02:41;;;;;;;;;;;;;;;1.59;63.35;99777.06;5091969;28;19916;-42
2023/02/05 02:05:13;;;;;;;;;;;;;;;1.47;63.13;99791.34;5091602;28;20355;-42
2023/02/05 02:07:39;;;;;;;;;;;;;;;1.40;64.73;99788.47;5089488;28;19916;-42
2023/02/05 02:10:05;;;;;;;;;;;;;;;1.23;65.89;99797.06;5091666;28;19914;-42
2023/02/05 02:12:32;;;;;;;;;;;;;;;1.56;64.82;99788.69;5091493;28;19918;-42
2023/02/05 02:15:00;;;;;;;;;;;;;;;1.38;66.35;99794.81;5091882;28;20030;-42
2023/02/05 02:17:26;;;;;;;;;;;;;;;1.27;66.87;99803.69;5091699;28;19911;-42
2023/02/05 02:19:58;;;;;;;;;;;;;;;1.13;68.99;99820.69;5091079;28;19935;-42
2023/02/05 02:22:58;;;;;;;;;;;;;;;1.16;69.63;99821.22;5091403;28;19928;-42
2023/02/05 02:25:30;;;;;;;;;;;;;;;0.88;71.55;99822.09;5068819;28;19913;-42
2023/02/05 02:28:13;;;;;;;;;;;;;;;0.97;71.04;99827.34;5070429;28;19932;-42
2023/02/05 02:30:49;;;;;;;;;;;;;;;1.67;70.40;99837.50;5071316;28;19912;-42
2023/02/05 02:33:22;;;;;;;;;;;;;;;0.73;73.58;99834.78;5071247;28;19913;-42
2023/02/05 02:35:50;;;;;;;;;;;;;;;0.80;76.47;99830.66;5071341;28;19943;-42
2023/02/05 02:38:26;;;;;;;;;;;;;;;0.64;77.46;99838.22;5071240;28;19912;-42
2023/02/05 02:40:53;;;;;;;;;;;;;;;0.48;79.87;99849.25;5071264;28;20282;-42
2023/02/05 02:43:19;;;;;;;;;;;;;;;0.36;81.28;99851.13;5071118;28;19912;-42
2023/02/05 02:45:52;;;;;;;;;;;;;;;0.45;80.73;99849.50;5071014;28;19923;-42
2023/02/05 02:48:19;;;;;;;;;;;;;;;0.56;80.71;99855.44;5071330;28;19920;-42
2023/02/05 02:50:48;;;;;;;;;;;;;;;0.23;81.96;99843.53;5070986;28;19912;-42
2023/02/05 02:53:15;;;;;;;;;;;;;;;0.27;82.31;99847.56;5070859;28;20395;-42
2023/02/05 02:55:42;;;;;;;;;;;;;;;0.26;82.23;99840.66;5071089;28;19986;-42
2023/02/05 02:58:12;;;;;;;;;;;;;;;0.30;82.92;99847.25;5071299;28;19912;-42
2023/02/05 03:00:39;;;;;;;;;;;;;;;0.13;83.06;99834.81;5070903;28;19913;-42
2023/02/05 03:03:05;;;;;;;;;;;;;;;0.08;83.29;99842.28;5070755;28;20328;-42
2023/02/05 03:05:32;;;;;;;;;;;;;;;0.10;84.08;99863.91;5070829;28;19928;-43
2023/02/05 03:08:05;;;;;;;;;;;;;;;0.22;83.62;99864.63;5070760;28;19913;-43
2023/02/05 03:10:33;;;;;;;;;;;;;;;0.10;83.38;99867.34;5070646;28;19943;-43
2023/02/05 03:12:59;;;;;;;;;;;;;;;-0.19;85.26;99867.25;5070518;28;19912;-43
2023/02/05 03:15:24;;;;;;;;;;;;;;;0.09;85.01;99864.84;5070724;28;19999;-43
2023/02/05 03:17:51;;;;;;;;;;;;;;;0.10;84.46;99876.97;5070760;28;20015;-43
2023/02/05 03:20:23;;;;;;;;;;;;;;;0.13;84.30;99872.31;5070781;28;20003;-43
2023/02/05 03:22:48;;;;;;;;;;;;;;;-0.08;85.24;99869.72;5072380;28;20368;-43
2023/02/05 03:25:14;;;;;;;;;;;;;;;-0.10;85.28;99865.59;5090706;28;19973;-43
2023/02/05 03:27:39;;;;;;;;;;;;;;;-0.25;85.60;99857.28;5090870;28;19916;-43
2023/02/05 03:30:06;;;;;;;;;;;;;;;-0.27;86.30;99869.66;5090410;28;19912;-43
2023/02/05 03:32:43;;;;;;;;;;;;;;;-0.14;85.94;99862.41;5093809;28;19912;-43
2023/02/05 03:35:26;;;;;;;;;;;;;;;-0.25;86.40;99870.34;5094798;28;19912;-43
2023/02/05 03:38:07;;;;;;;;;;;;;;;-0.24;87.33;99879.88;5094546;28;19912;-42
2023/02/05 03:40:45;;;;;;;;;;;;;;;-0.02;86.90;99874.47;5094569;28;20441;-43
2023/02/05 03:43:29;;;;;;;;;;;;;;;-0.20;86.42;99878.66;5094594;28;19919;-43
2023/02/05 03:46:09;;;;;;;;;;;;;;;-0.49;87.83;99881.13;5094335;28;19918;-42
2023/02/05 03:48:40;;;;;;;;;;;;;;;-0.22;86.32;99883.19;5094013;28;19927;-43
2023/02/05 03:51:15;;;;;;;;;;;;;;;-0.42;87.00;99882.25;5094534;28;19915;-43
2023/02/05 03:53:41;;;;;;;;;;;;;;;-0.49;87.46;99879.31;5094167;28;20017;-43
2023/02/05 03:56:10;;;;;;;;;;;;;;;-0.22;87.41;99889.22;5093992;28;20006;-42
2023/02/05 03:58:39;;;;;;;;;;;;;;;-0.34;86.23;99885.06;5094378;28;20225;-43
2023/02/05 04:01:05;;;;;;;;;;;;;;;-0.23;86.39;99897.22;5094138;28;19981;-43
2023/02/05 04:03:30;;;;;;;;;;;;;;;-0.48;86.88;99899.28;5093842;28;19969;-44
2023/02/05 04:05:55;;;;;;;;;;;;;;;-0.34;86.04;99890.28;5094187;28;19916;-42
2023/02/05 04:08:20;;;;;;;;;;;;;;;-0.44;86.27;99889.38;5090174;28;19912;-43
2023/02/05 04:10:46;;;;;;;;;;;;;;;-0.66;87.19;99896.41;5093917;28;20070;-43
2023/02/05 04:13:11;;;;;;;;;;;;;;;-0.45;86.05;99893.78;5093965;28;20396;-44
2023/02/05 04:15:36;;;;;;;;;;;;;;;-0.33;85.61;99891.09;5093806;28;19923;-44
2023/02/05 04:18:02;;;;;;;;;;;;;;;-0.38;85.45;99899.34;5093474;28;19919;-43
2023/02/05 04:20:27;;;;;;;;;;;;;;;-0.16;84.58;99908.81;5093695;28;20364;-43
2023/02/05 04:22:52;;;;;;;;;;;;;;;-0.34;84.25;99910.34;5090925;28;19920;-43
2023/02/05 04:25:19;;;;;;;;;;;;;;;-0.48;85.55;99919.38;5078357;28;20440;-42
2023/02/05 04:27:44;;;;;;;;;;;;;;;-0.25;84.10;99912.19;5073515;28;19916;-43
2023/02/05 04:30:10;;;;;;;;;;;;;;;-0.35;83.48;99904.31;5073197;28;20292;-43
2023/02/05 04:32:35;;;;;;;;;;;;;;;-0.63;84.28;99905.78;5073373;28;19912;-43
2023/02/05 04:35:00;;;;;;;;;;;;;;;-0.74;85.14;99903.22;5073069;28;19920;-43
2023/02/05 04:37:26;;;;;;;;;;;;;;;-0.72;84.54;99914.38;5072755;28;20020;-43
2023/02/05 04:39:51;;;;;;;;;;;;;;;-0.82;84.54;99922.16;5073215;28;19912;-43
2023/02/05 04:42:16;;;;;;;;;;;;;;;-0.77;84.53;99927.03;5072390;28;19912;-43
2023/02/05 04:44:42;;;;;;;;;;;;;;;-0.72;83.46;99937.91;5072809;28;19912;-43
2023/02/05 04:47:07;;;;;;;;;;;;;;;-0.54;83.21;99931.16;5072989;28;19916;-43
2023/02/05 04:49:33;;;;;;;;;;;;;;;-0.59;82.52;99938.59;5072904;28;19913;-44
2023/02/05 04:51:58;;;;;;;;;;;;;;;-0.71;81.80;99940.41;5097922;28;19998;-43
2023/02/05 04:54:23;;;;;;;;;;;;;;;-0.76;82.91;99939.13;5113106;28;19958;-43
2023/02/05 04:56:49;;;;;;;;;;;;;;;-0.77;82.43;99937.47;5113244;28;20362;-42
2023/02/05 04:59:14;;;;;;;;;;;;;;;-0.74;82.59;99934.59;5113210;28;19955;-42
2023/02/05 05:01:39;;;;;;;;;;;;;;;-0.69;82.32;99943.72;5113220;28;19985;-43
2023/02/05 05:04:04;;;;;;;;;;;;;;;-0.72;82.47;99937.91;5113282;28;20364;-42
2023/02/05 05:06:30;;;;;;;;;;;;;;;-0.63;82.08;99938.00;5113051;28;19916;-43
2023/02/05 05:08:55;;;;;;;;;;;;;;;-0.37;80.10;99940.22;5095890;28;19912;-42
2023/02/05 05:11:20;;;;;;;;;;;;;;;-0.42;79.90;99947.63;5092780;28;19912;-42
2023/02/05 05:13:48;;;;;;;;;;;;;;;-0.32;79.49;99950.31;5092537;28;20275;-43
2023/02/05 05:16:13;;;;;;;;;;;;;;;-0.54;80.00;99946.03;5092401;28;19912;-42
2023/02/05 05:18:39;;;;;;;;;;;;;;;-0.23;79.13;99953.00;5092667;28;19919;-42
2023/02/05 05:21:04;;;;;;;;;;;;;;;-0.02;77.31;99955.56;5092482;28;19947;-43
2023/02/05 05:23:30;;;;;;;;;;;;;;;0.01;76.77;99967.56;5092531;28;19912;-42
2023/02/05 05:25:55;;;;;;;;;;;;;;;-0.37;79.52;99963.75;5092264;28;19920;-42
2023/02/05 05:28:21;;;;;;;;;;;;;;;-0.29;81.95;99970.97;5091881;28;19916;-43
2023/02/05 05:30:46;;;;;;;;;;;;;;;-0.40;78.89;99974.47;5097943;28;19968;-43
2023/02/05 05:33:12;;;;;;;;;;;;;;;-0.49;79.80;99970.03;5112775;28;19912;-43
2023/02/05 05:35:37;;;;;;;;;;;;;;;-0.73;78.71;99939.69;5112447;28;19912;-43
2023/02/05 05:38:03;;;;;;;;;;;;;;;-0.50;78.17;99984.84;5112456;28;19915;-43
2023/02/05 05:45:57;;;;;;;;;;;;;;;-0.93;79.28;99984.91;5112631;28;20081;-43
2023/02/05 05:48:22;;;;;;;;;;;;;;;-0.42;76.53;99992.91;5112129;28;19912;-42
2023/02/05 05:50:48;;;;;;;;;;;;;;;-0.42;75.25;100006.00;5094917;28;19912;-43
2023/02/05 05:53:13;;;;;;;;;;;;;;;-0.30;75.91;100011.16;5090898;28;19955;-43
2023/02/05 05:55:38;;;;;;;;;;;;;;;-0.24;75.25;100010.66;5091876;28;19922;-42
2023/02/05 05:58:04;;;;;;;;;;;;;;;0.09;76.46;100014.03;5091917;28;19916;-42
2023/02/05 06:00:29;;;;;;;;;;;;;;;-0.36;75.28;100015.13;5091539;28;19999;-42
2023/02/05 06:02:54;;;;;;;;;;;;;;;0.01;74.76;100014.66;5091572;28;19961;-42
2023/02/05 06:05:19;;;;;;;;;;;;;;;-0.03;73.11;100016.72;5091060;28;19912;-42
2023/02/05 06:07:45;;;;;;;;;;;;;;;-0.22;72.38;100014.78;5091073;28;19930;-42
2023/02/05 06:10:10;;;;;;;;;;;;;;;-0.23;72.89;100009.69;5091721;28;19912;-43
2023/02/05 06:12:35;;;;;;;;;;;;;;;-0.41;75.52;100020.72;5091442;28;19919;-43
2023/02/05 06:15:01;;;;;;;;;;;;;;;-0.09;75.12;100021.63;5091477;28;19912;-43
2023/02/05 06:17:26;;;;;;;;;;;;;;;0.07;72.87;100026.41;5091431;28;20267;-44
2023/02/05 06:19:52;;;;;;;;;;;;;;;0.13;75.19;100025.88;5083531;28;20118;-44
2023/02/05 06:22:17;;;;;;;;;;;;;;;0.30;73.98;100027.91;5078658;28;19924;-44
2023/02/05 06:24:42;;;;;;;;;;;;;;;0.21;74.87;100036.56;5093667;28;19912;-45
2023/02/05 06:27:08;;;;;;;;;;;;;;;0.24;75.70;100040.69;5100264;28;19923;-45
2023/02/05 06:29:33;;;;;;;;;;;;;;;0.95;74.04;100053.78;5099965;28;20363;-45
2023/02/05 06:31:58;;;;;;;;;;;;;;;1.21;73.48;100050.69;5111494;28;19916;-44
2023/02/05 06:34:23;;;;;;;;;;;;;;;1.21;72.13;100050.69;5111687;28;19916;-44
2023/02/05 06:36:49;;;;;;;;;;;;;;;0.94;77.66;100057.41;5099226;28;19916;-45
2023/02/05 06:39:14;;;;;;;;;;;;;;;0.52;75.63;100055.72;5088169;28;19999;-43
2023/02/05 06:41:39;;;;;;;;;;;;;;;0.19;74.94;100062.00;5089742;28;19916;-45
2023/02/05 06:44:04;;;;;;;;;;;;;;;-0.18;75.73;100072.94;5089133;28;19955;-43
2023/02/05 06:46:30;;;;;;;;;;;;;;;-0.04;77.99;100067.41;5090253;28;19924;-45
2023/02/05 06:48:55;;;;;;;;;;;;;;;0.56;75.46;100090.34;5090633;28;20358;-43
2023/02/05 06:51:20;;;;;;;;;;;;;;;0.77;74.28;100100.78;5090559;28;19916;-43
2023/02/05 06:53:46;;;;;;;;;;;;;;;0.45;74.02;100111.38;5090316;28;20299;-43
2023/02/05 06:56:11;;;;;;;;;;;;;;;0.63;73.20;100112.44;5090598;28;20320;-45
2023/02/05 06:58:36;;;;;;;;;;;;;;;1.03;76.59;100129.13;5090204;28;19919;-45
2023/02/05 07:01:01;;;;;;;;;;;;;;;0.78;73.49;100124.22;5090771;28;19912;-45
2023/02/05 07:03:27;;;;;;;;;;;;;;;0.88;73.56;100129.50;5090514;28;20289;-45
2023/02/05 07:05:52;;;;;;;;;;;;;;;0.89;73.72;100127.72;5093546;28;20003;-44
2023/02/05 07:08:17;;;;;;;;;;;;;;;0.72;74.00;100135.25;5094868;28;20383;-44
2023/02/05 07:10:43;;;;;;;;;;;;;;;0.77;73.37;100143.53;5095224;28;20384;-45
2023/02/05 07:13:08;;;;;;;;;;;;;;;0.50;76.04;100143.25;5094631;28;20300;-45
2023/02/05 07:15:36;;;;;;;;;;;;;;;0.38;77.70;100147.69;5095165;28;19916;-46
2023/02/05 07:18:03;;;;;;;;;;;;;;;0.43;76.76;100144.72;5094995;28;20000;-45
2023/02/05 07:20:29;;;;;;;;;;;;;;;0.59;76.89;100155.53;5094499;28;19927;-45
2023/02/05 07:22:54;;;;;;;;;;;;;;;0.59;77.55;100160.78;5094684;28;19919;-45
2023/02/05 07:25:20;;;;;;;;;;;;;;;0.53;78.01;100161.31;5094362;28;20249;-49
2023/02/05 07:27:45;;;;;;;;;;;;;;;0.34;78.83;100165.47;5094772;28;19963;-46
2023/02/05 07:30:11;;;;;;;;;;;;;;;0.35;79.04;100159.25;5094899;28;20338;-45
2023/02/05 07:32:36;;;;;;;;;;;;;;;0.46;79.89;100162.75;5094581;28;19919;-46
2023/02/05 07:35:01;;;;;;;;;;;;;;;0.40;79.54;100164.13;5094152;28;19984;-45
2023/02/05 07:37:26;;;;;;;;;;;;;;;0.29;81.33;100156.34;5093721;28;19912;-45
2023/02/05 07:39:52;;;;;;;;;;;;;;;0.54;80.84;100165.59;5094172;28;20427;-45
2023/02/05 07:42:17;;;;;;;;;;;;;;;0.45;80.39;100158.50;5094197;28;19923;-46
2023/02/05 07:44:42;;;;;;;;;;;;;;;0.39;80.28;100159.84;5093216;28;20316;-45
2023/02/05 07:47:08;;;;;;;;;;;;;;;0.46;80.37;100165.38;5093479;28;19965;-46
2023/02/05 07:49:33;;;;;;;;;;;;;;;0.62;79.62;100162.34;5094166;28;19912;-47
2023/02/05 07:51:58;;;;;;;;;;;;;;;0.62;79.21;100159.72;5094277;28;19912;-45
2023/02/05 07:54:24;;;;;;;;;;;;;;;0.71;79.75;100156.31;5109278;27;19920;-46
2023/02/05 07:56:49;;;;;;;;;;;;;;;0.79;78.40;100161.72;5112121;28;19918;-45
2023/02/05 07:59:15;;;;;;;;;;;;;;;0.95;78.53;100166.50;5083150;28;20356;-46
2023/02/05 08:01:40;;;;;;;;;;;;;;;1.04;77.80;100168.31;5085400;28;19916;-47
2023/02/05 08:04:05;;;;;;;;;;;;;;;1.33;77.52;100172.84;5082454;28;19912;-46
2023/02/05 08:06:32;;;;;;;;;;;;;;;1.53;75.94;100169.31;5083462;28;19916;-47
2023/02/05 08:08:57;;;;;;;;;;;;;;;1.50;74.80;100172.19;5079552;28;20006;-45
2023/02/05 08:11:22;;;;;;;;;;;;;;;1.58;74.65;100179.44;5073793;28;20395;-46
2023/02/05 08:13:47;;;;;;;;;;;;;;;1.76;74.56;100176.97;5073822;28;19913;-48
2023/02/05 08:16:16;;;;;;;;;;;;;;;1.84;73.91;100184.97;5073236;28;20012;-46
2023/02/05 08:18:45;;;;;;;;;;;;;;;1.89;73.14;100181.97;5084493;28;20001;-46
2023/02/05 08:21:10;;;;;;;;;;;;;;;1.88;72.95;100186.34;5086536;28;19978;-45
2023/02/05 08:23:36;;;;;;;;;;;;;;;2.04;72.41;100187.66;5090930;28;20008;-46
2023/02/05 08:26:01;;;;;;;;;;;;;;;1.86;72.77;100187.47;5084027;28;20011;-45
2023/02/05 08:28:26;;;;;;;;;;;;;;;1.50;74.56;100189.75;5081190;28;19917;-45
2023/02/05 08:30:52;;;;;;;;;;;;;;;1.71;73.70;100202.78;5083183;28;20541;-48
2023/02/05 08:33:17;;;;;;;;;;;;;;;1.72;73.85;100202.66;5083757;28;20007;-47
2023/02/05 08:35:43;;;;;;;;;;;;;;;1.76;72.75;100201.41;5081896;28;19912;-45
2023/02/05 08:38:08;;;;;;;;;;;;;;;1.75;72.56;100212.88;5083082;28;19943;-45
2023/02/05 08:40:33;;;;;;;;;;;;;;;1.78;73.18;100217.03;5082625;28;20005;-48
2023/02/05 08:43:01;;;;;;;;;;;;;;;1.78;74.83;100219.66;5081602;28;19920;-45
2023/02/05 08:45:26;;;;;;;;;;;;;;;2.00;72.83;100225.63;5081829;28;19912;-49
2023/02/05 08:47:52;;;;;;;;;;;;;;;1.58;74.40;100229.28;5082744;28;19927;-48
2023/02/05 08:50:17;;;;;;;;;;;;;;;1.42;74.40;100228.94;5082971;28;20003;-45
2023/02/05 08:52:43;;;;;;;;;;;;;;;1.59;74.07;100233.53;5081571;28;20003;-47
2023/02/05 08:55:08;;;;;;;;;;;;;;;1.35;75.51;100231.25;5083602;28;19912;-47
2023/02/05 08:57:34;;;;;;;;;;;;;;;1.68;74.38;100227.50;5082539;28;19950;-46
2023/02/05 08:59:59;;;;;;;;;;;;;;;1.72;73.61;100225.44;5076116;28;19974;-45
2023/02/05 09:02:24;;;;;;;;;;;;;;;1.63;73.73;100219.19;5072840;28;20024;-45
2023/02/05 09:04:50;;;;;;;;;;;;;;;1.82;72.90;100221.03;5072419;28;20423;-47
2023/02/05 09:07:15;;;;;;;;;;;;;;;2.06;70.71;100230.34;5082787;28;20292;-46
2023/02/05 09:09:41;;;;;;;;;;;;;;;2.11;71.88;100239.47;5092426;28;19926;-45
2023/02/05 09:12:06;;;;;;;;;;;;;;;2.30;71.13;100243.06;5092249;28;19912;-45
2023/02/05 09:14:35;;;;;;;;;;;;;;;2.27;70.43;100240.72;5092535;28;20448;-44
2023/02/05 09:17:03;;;;;;;;;;;;;;;2.26;71.02;100233.81;5092134;28;19947;-45
2023/02/05 09:19:32;;;;;;;;;;;;;;;2.39;71.74;100234.34;5092111;28;19916;-44
2023/02/05 09:21:57;;;;;;;;;;;;;;;2.69;70.24;100233.38;5091801;28;20375;-45
2023/02/05 09:24:23;;;;;;;;;;;;;;;2.84;68.97;100240.84;5092213;28;19912;-45
2023/02/05 09:26:48;;;;;;;;;;;;;;;3.20;68.40;100235.72;5091921;28;19916;-46
2023/02/05 09:29:13;;;;;;;;;;;;;;;3.07;68.12;100239.53;5091031;28;20123;-46
2023/02/05 09:31:39;;;;;;;;;;;;;;;3.11;67.98;100243.50;5092066;28;20002;-45
2023/02/05 09:34:05;;;;;;;;;;;;;;;3.41;66.32;100252.16;5092426;28;19960;-44
2023/02/05 09:36:30;;;;;;;;;;;;;;;3.56;65.68;100234.09;5091768;28;20344;-44
2023/02/05 09:38:55;;;;;;;;;;;;;;;3.72;65.41;100236.06;5092067;28;19923;-46
2023/02/05 09:41:38;;;;;;;;;;;;;;;3.91;64.08;100243.03;5092189;28;19912;-45
2023/02/05 09:44:11;;;;;;;;;;;;;;;3.88;64.15;100249.44;5091832;28;20416;-49
2023/02/05 09:46:37;;;;;;;;;;;;;;;3.96;62.14;100243.44;5091450;28;20015;-53
2023/02/05 09:49:02;;;;;;;;;;;;;;;3.60;62.14;100239.84;5087203;28;20364;-51
2023/02/05 09:51:27;;;;;;;;;;;;;;;3.50;59.84;100232.88;5080863;28;19912;-52
2023/02/05 09:53:55;;;;;;;;;;;;;;;3.73;57.50;100232.44;5090879;28;19990;-53
2023/02/05 09:56:22;;;;;;;;;;;;;;;3.60;58.58;100238.09;5090656;28;19969;-53
2023/02/05 09:58:48;;;;;;;;;;;;;;;3.63;55.53;100232.50;5091162;28;20367;-50
2023/02/05 10:01:46;;;;;;;;;;;;;;;3.65;55.64;100230.56;5092116;28;19912;-48
2023/02/05 10:04:12;;;;;;;;;;;;;;;3.01;58.22;100245.34;5090141;28;19919;-47
2023/02/05 10:06:45;;;;;;;;;;;;;;;2.88;54.74;100243.03;5091516;28;19923;-47
2023/02/05 10:09:22;;;;;;;;;;;;;;;3.21;55.66;100232.97;5092343;28;19919;-46
2023/02/05 10:11:58;;;;;;;;;;;;;;;3.16;55.32;100229.09;5092105;28;20366;-47
2023/02/05 10:14:23;;;;;;;;;;;;;;;3.21;56.85;100232.97;5091516;28;19913;-46
2023/02/05 10:16:48;;;;;;;;;;;;;;;2.87;58.21;100243.16;5091611;28;19912;-46
2023/02/05 10:19:16;;;;;;;;;;;;;;;2.73;55.85;100247.88;5091783;28;20014;-45
2023/02/05 10:22:11;;;;;;;;;;;;;;;2.27;57.05;100248.59;5091396;28;19928;-44
2023/02/05 10:24:48;;;;;;;;;;;;;;;2.18;58.65;100245.00;5090384;28;19912;-45
2023/02/05 10:27:17;;;;;;;;;;;;;;;1.98;56.88;100251.16;5091044;28;19916;-45
2023/02/05 10:30:01;;;;;;;;;;;;;;;1.93;58.85;100244.53;5091274;28;20007;-43
2023/02/05 10:32:44;;;;;;;;;;;;;;;2.08;57.07;100247.59;5070792;28;20268;-42
2023/02/05 10:35:22;;;;;;;;;;;;;;;2.15;59.36;100246.09;5071040;28;19913;-44
2023/02/05 10:37:51;;;;;;;;;;;;;;;2.31;58.11;100249.97;5070432;28;19920;-42
2023/02/05 10:40:18;;;;;;;;;;;;;;;2.48;54.32;100248.47;5070562;28;19916;-42
2023/02/05 10:42:50;;;;;;;;;;;;;;;2.35;54.30;100244.31;5081781;28;19997;-42
2023/02/05 10:45:23;;;;;;;;;;;;;;;2.45;53.37;100252.19;5070717;28;19996;-42
2023/02/05 10:47:49;;;;;;;;;;;;;;;2.28;52.50;100248.44;5070374;28;19948;-42
2023/02/05 10:50:21;;;;;;;;;;;;;;;2.68;51.54;100244.84;5078323;28;20012;-42
2023/02/05 10:52:47;;;;;;;;;;;;;;;2.78;52.08;100249.25;5090225;28;19969;-43
2023/02/05 10:55:12;;;;;;;;;;;;;;;2.68;52.08;100249.28;5090785;28;19912;-43
2023/02/05 10:57:38;;;;;;;;;;;;;;;2.75;50.78;100250.38;5089955;28;20007;-44
2023/02/05 11:00:12;;;;;;;;;;;;;;;2.54;48.98;100256.63;5090798;28;19994;-43
2023/02/05 11:02:39;;;;;;;;;;;;;;;2.64;49.23;100251.34;5090574;28;19916;-44
2023/02/05 11:05:14;;;;;;;;;;;;;;;2.74;51.11;100243.44;5091274;28;19952;-43
2023/02/05 11:07:42;;;;;;;;;;;;;;;2.48;52.06;100258.97;5090312;28;19938;-44
2023/02/05 11:10:23;;;;;;;;;;;;;;;2.45;50.87;100252.19;5090477;28;20314;-43
2023/02/05 11:12:50;;;;;;;;;;;;;;;2.85;50.57;100248.56;5090651;28;19977;-44
2023/02/05 11:15:26;;;;;;;;;;;;;;;2.77;48.66;100243.19;5090677;28;19917;-43
2023/02/05 11:17:53;;;;;;;;;;;;;;;2.23;51.03;100248.03;5090586;28;19912;-43
2023/02/05 11:20:18;;;;;;;;;;;;;;;3.27;48.96;100236.81;5090589;28;19959;-44
2023/02/05 11:22:45;;;;;;;;;;;;;;;3.35;46.99;100239.59;5091045;28;19931;-43
2023/02/05 11:25:10;;;;;;;;;;;;;;;2.82;47.00;100235.72;5090914;28;20306;-43
2023/02/05 11:27:37;;;;;;;;;;;;;;;3.44;45.72;100240.50;5090550;28;20355;-43
2023/02/05 11:30:22;;;;;;;;;;;;;;;3.43;46.07;100239.69;5090514;28;19912;-43
2023/02/05 11:32:47;;;;;;;;;;;;;;;2.58;47.21;100233.50;5090603;28;19919;-43
2023/02/05 11:35:21;;;;;;;;;;;;;;;2.92;45.60;100233.88;5090865;28;20295;-42
2023/02/05 11:38:05;;;;;;;;;;;;;;;3.05;43.25;100236.22;5090430;28;19931;-43
2023/02/05 11:40:31;;;;;;;;;;;;;;;2.49;43.93;100232.53;5090106;28;20303;-42
2023/02/05 11:42:59;;;;;;;;;;;;;;;3.02;43.48;100225.13;5090676;28;20344;-42
2023/02/05 11:45:25;;;;;;;;;;;;;;;2.69;43.18;100238.63;5090841;28;20340;-44
2023/02/05 11:47:51;;;;;;;;;;;;;;;2.40;43.73;100240.44;5090259;28;19944;-42
2023/02/05 11:50:20;;;;;;;;;;;;;;;2.26;43.94;100228.53;5089924;28;19919;-42
2023/02/05 11:52:45;;;;;;;;;;;;;;;2.52;44.26;100227.03;5092818;28;19916;-42
2023/02/05 11:55:22;;;;;;;;;;;;;;;2.24;43.98;100231.31;5093885;28;19919;-42
2023/02/05 11:57:56;;;;;;;;;;;;;;;2.24;43.59;100233.94;5093803;28;19912;-41
2023/02/05 12:00:22;;;;;;;;;;;;;;;2.78;42.44;100229.09;5093822;28;20698;-42
2023/02/05 12:02:52;;;;;;;;;;;;;;;2.41;43.10;100226.34;5093506;28;19934;-42
2023/02/05 12:05:33;;;;;;;;;;;;;;;1.74;43.04;100226.13;5093715;28;19912;-43
2023/02/05 12:08:05;;;;;;;;;;;;;;;2.51;42.71;100225.38;5093557;28;19938;-42
2023/02/05 12:10:37;;;;;;;;;;;;;;;2.85;42.13;100224.88;5093847;28;19916;-42
2023/02/05 12:13:23;;;;;;;;;;;;;;;2.71;41.85;100227.97;5093371;28;19995;-42
2023/02/05 12:15:49;;;;;;;;;;;;;;;3.11;42.73;100224.28;5093595;28;19923;-42
2023/02/05 12:18:20;;;;;;;;;;;;;;;3.51;41.60;100228.41;5093536;28;19912;-43
2023/02/05 12:20:57;;;;;;;;;;;;;;;2.69;41.95;100233.38;5093071;28;19981;-42
2023/02/05 12:23:40;;;;;;;;;;;;;;;3.09;42.36;100226.22;5093332;28;20252;-42
2023/02/05 12:26:33;;;;;;;;;;;;;;;3.33;42.15;100237.09;5093449;28;19922;-43
2023/02/05 12:28:59;;;;;;;;;;;;;;;3.37;43.66;100240.25;5093120;28;19916;-43
2023/02/05 12:31:42;;;;;;;;;;;;;;;3.71;47.36;100248.41;5093319;28;19916;-42
2023/02/05 12:34:16;;;;;;;;;;;;;;;4.13;42.78;100241.75;5092763;28;20001;-43
2023/02/05 12:36:41;;;;;;;;;;;;;;;2.67;42.27;100242.38;5093157;28;19912;-42
2023/02/05 12:39:13;;;;;;;;;;;;;;;3.17;42.53;100239.50;5093485;28;19935;-42
2023/02/05 12:41:38;;;;;;;;;;;;;;;3.41;41.26;100243.41;5093575;28;19912;-43
2023/02/05 12:44:22;;;;;;;;;;;;;;;3.06;42.14;100244.91;5092464;28;20014;-42
2023/02/05 12:46:55;;;;;;;;;;;;;;;4.01;40.90;100240.34;5093052;28;19977;-41
2023/02/05 12:49:27;;;;;;;;;;;;;;;3.61;40.04;100231.00;5092929;28;19974;-42
2023/02/05 12:52:11;;;;;;;;;;;;;;;3.58;40.00;100242.66;5093017;28;19912;-43
2023/02/05 12:54:50;;;;;;;;;;;;;;;3.27;40.50;100236.81;5092560;28;19976;-43
2023/02/05 12:57:19;;;;;;;;;;;;;;;2.49;42.93;100237.78;5092775;28;19951;-42